Thomson Majesty — 9HA2188 — position and weather

sailwx.info

Track history (hours):
 
Tides and Currents Weather Stations Pressure Air Temp Water Temp Dewpoint Dewpoint Depression Visibility Wind Speed Wind Dir Waves Ship Positions

Thomson Majesty

Last reported at 2017-Jan-22 03:13 UTC. Time now 2017-Jan-23 12:32 UTC.
Position N 28°15' W 016°07'.

Length 207 m; draft 6.2 m.

Type: Ship. MMSI: 248124000.

Date/timePositionNaut miles runAvg speedWind from/ knotsBaromVisibWave heightAir tempDewpointWater temp
2017-Jan-22 03:13N 28°15' W 016°07'812.2
2017-Jan-22 02:33N 28°20' W 015°59'1312.6
2017-Jan-22 01:33N 28°18' W 015°45'1212.4
2017-Jan-22 00:33N 28°15' W 015°31'9 9.3
2017-Jan-21 23:33N 28°10' W 015°23'3 2.7
2017-Jan-21 22:32N 28°08' W 015°25'0 0.0
2017-Jan-21 21:32N 28°08' W 015°25'0 0.0
2017-Jan-21 20:23N 28°08' W 015°25'0 0.0
2017-Jan-21 19:26N 28°08' W 015°25'0 0.0
2017-Jan-21 18:26N 28°08' W 015°25'0 0.0
2017-Jan-21 17:29N 28°08' W 015°25'0 0.0
2017-Jan-21 16:29N 28°08' W 015°25'0 0.0
2017-Jan-21 15:26N 28°08' W 015°25'0 0.0
2017-Jan-21 14:26N 28°08' W 015°25'0 0.0
2017-Jan-21 13:32N 28°08' W 015°25'0 0.0
2017-Jan-21 12:32N 28°08' W 015°25'0 0.0
2017-Jan-21 11:32N 28°08' W 015°25'0 0.0
2017-Jan-21 10:32N 28°08' W 015°25'0 0.0
2017-Jan-21 09:32N 28°08' W 015°25'0 0.0
2017-Jan-21 08:32N 28°08' W 015°25'0 0.0
2017-Jan-21 07:32N 28°08' W 015°25'5 4.8
2017-Jan-21 06:33N 28°11' W 015°21'1110.9
2017-Jan-21 05:33N 28°21' W 015°17'1110.6
2017-Jan-21 04:33N 28°28' W 015°27'1110.9
2017-Jan-21 03:33N 28°34' W 015°37'1010.1
2017-Jan-21 02:33N 28°29' W 015°47'1110.9
2017-Jan-21 01:33N 28°22' W 015°57'1211.7
2017-Jan-21 00:33N 28°27' W 016°09'5 2.2
2017-Jan-20 22:20N 28°28' W 016°15'0 0.0
2017-Jan-20 21:32N 28°28' W 016°15'0 0.0
2017-Jan-20 20:32N 28°28' W 016°15'0 0.0
2017-Jan-20 19:32N 28°28' W 016°15'0 0.0
2017-Jan-20 18:32N 28°28' W 016°15'0 0.0
2017-Jan-20 17:20N 28°28' W 016°15'0 0.0
2017-Jan-20 16:26N 28°28' W 016°15'0 0.0
2017-Jan-20 15:23N 28°28' W 016°15'0 0.0
2017-Jan-20 14:26N 28°28' W 016°15'0 0.0
2017-Jan-20 13:29N 28°28' W 016°15'0 0.0
2017-Jan-20 12:29N 28°28' W 016°15'0 0.0
2017-Jan-20 11:29N 28°28' W 016°15'0 0.0
2017-Jan-20 10:26N 28°28' W 016°15'0 0.0
2017-Jan-20 09:32N 28°28' W 016°15'0 0.0
2017-Jan-20 08:32N 28°28' W 016°15'0 0.0
2017-Jan-20 07:32N 28°28' W 016°15'0 0.0
2017-Jan-20 06:32N 28°28' W 016°15'0 0.0
2017-Jan-20 05:32N 28°28' W 016°15'8 8.5
2017-Jan-20 04:33N 28°27' W 016°05'1514.5
2017-Jan-20 03:33N 28°32' W 015°50'1615.9
2017-Jan-20 02:34N 28°40' W 015°34'1716.7
2017-Jan-20 01:34N 28°41' W 015°15'1716.6
2017-Jan-20 00:33N 28°43' W 014°56'1615.7
2017-Jan-19 23:33N 28°45' W 014°38'1211.4
2017-Jan-19 22:28N 28°46' W 014°24'1111.5
2017-Jan-19 21:29N 28°47' W 014°11'1111.4
2017-Jan-19 20:28N 28°48' W 013°58'1111.6
2017-Jan-19 19:32N 28°49' W 013°46'1212.4
2017-Jan-19 18:33N 28°55' W 013°34'3 3.3
2017-Jan-19 17:31N 28°58' W 013°32'0 0.0
2017-Jan-19 14:31N 28°58' W 013°32'0 0.0
2017-Jan-19 12:31N 28°58' W 013°32'0 0.1
2017-Jan-19 08:33N 28°58' W 013°32'1414.0
2017-Jan-19 07:33N 29°01' W 013°17'1616.2
2017-Jan-19 06:33N 29°08' W 012°59'  
2017-Jan-15 03:28N 28°39' W 016°20'1415.2
2017-Jan-15 02:33N 28°35' W 016°05'1716.6
2017-Jan-15 01:33N 28°23' W 015°52'1616.2
2017-Jan-15 00:33N 28°17' W 015°35'1514.6
2017-Jan-14 23:33N 28°08' W 015°22'3 2.7
2017-Jan-14 22:30N 28°08' W 015°25'0 0.0
2017-Jan-14 21:21N 28°08' W 015°25'0 0.0
2017-Jan-14 20:33N 28°08' W 015°25'0 0.0
2017-Jan-14 19:24N 28°08' W 015°25'0 0.0
2017-Jan-14 18:28N 28°08' W 015°25'0 0.0
2017-Jan-14 17:27N 28°08' W 015°25'0 0.0
2017-Jan-14 16:28N 28°08' W 015°25'0 0.0
2017-Jan-14 15:30N 28°08' W 015°25'0 0.0
2017-Jan-14 14:30N 28°08' W 015°25'0 0.0
2017-Jan-14 13:31N 28°08' W 015°25'0 0.0
2017-Jan-14 12:33N 28°08' W 015°25'0 0.0
2017-Jan-14 11:33N 28°08' W 015°25'0 0.0
2017-Jan-14 10:33N 28°08' W 015°25'0 0.0
2017-Jan-14 09:33N 28°08' W 015°25'0 0.0
2017-Jan-14 08:34N 28°08' W 015°25'0 0.0
2017-Jan-14 07:33N 28°08' W 015°25'6 5.6
2017-Jan-14 06:34N 28°12' W 015°21'1110.7
2017-Jan-14 05:33N 28°22' W 015°17'1111.3
2017-Jan-14 04:33N 28°29' W 015°28'1111.2
2017-Jan-14 03:33N 28°34' W 015°39'32 7.6
2017-Jan-13 23:24N 28°28' W 016°15'0 0.0
2017-Jan-13 22:24N 28°28' W 016°15'0 0.0
2017-Jan-13 21:27N 28°28' W 016°15'0 0.0
2017-Jan-13 19:24N 28°28' W 016°15'0 0.0
2017-Jan-13 18:30N 28°28' W 016°15'0 0.0
2017-Jan-13 17:30N 28°28' W 016°15'0 0.0
2017-Jan-13 16:30N 28°28' W 016°15'0 0.0
2017-Jan-13 15:33N 28°28' W 016°15'0 0.0
2017-Jan-13 14:33N 28°28' W 016°15'0 0.0
2017-Jan-13 13:33N 28°28' W 016°15'0 0.0
2017-Jan-13 12:33N 28°28' W 016°15'0 0.0
2017-Jan-13 11:33N 28°28' W 016°15'0 0.0
2017-Jan-13 10:21N 28°28' W 016°15'0 0.0
2017-Jan-13 09:33N 28°28' W 016°15'8367.6
2017-Jan-13 08:19N 28°45' W 014°41'1 0.1
2017-Jan-12 22:11N 28°45' W 014°40'813.0
2017-Jan-12 21:33N 28°46' W 014°31'1313.0
2017-Jan-12 20:33N 28°47' W 014°16'1313.3
2017-Jan-12 19:33N 28°48' W 014°01'1313.1
2017-Jan-12 18:33N 28°47' W 013°46'1413.0
2017-Jan-12 17:29N 28°33' W 013°47'5 1.0
2017-Jan-12 12:20N 28°30' W 013°51'0 0.0
2017-Jan-12 11:32N 28°30' W 013°51'0 0.0
2017-Jan-12 10:20N 28°30' W 013°51'0 0.0
2017-Jan-12 09:26N 28°30' W 013°51'0 0.0
2017-Jan-12 08:20N 28°30' W 013°51'0 0.3
2017-Jan-12 07:33N 28°29' W 013°51'  
Track history (hours):
 
Tides and Currents Weather Stations Pressure Air Temp Water Temp Dewpoint Dewpoint Depression Visibility Wind Speed Wind Dir Waves Ship Positions

Thomson Majesty

Last reported at 2017-Jan-22 03:13 UTC. Time now 2017-Jan-23 12:32 UTC.
Position N 28°15' W 016°07'.

Length 207 m; draft 6.2 m.

Type: Ship. MMSI: 248124000.

Date/timePositionNaut miles runAvg speedWind from/ knotsBaromVisibWave heightAir tempDewpointWater temp
2017-Jan-22 03:13N 28°15' W 016°07'812.2
2017-Jan-22 02:33N 28°20' W 015°59'1312.6
2017-Jan-22 01:33N 28°18' W 015°45'1212.4
2017-Jan-22 00:33N 28°15' W 015°31'9 9.3
2017-Jan-21 23:33N 28°10' W 015°23'3 2.7
2017-Jan-21 22:32N 28°08' W 015°25'0 0.0
2017-Jan-21 21:32N 28°08' W 015°25'0 0.0
2017-Jan-21 20:23N 28°08' W 015°25'0 0.0
2017-Jan-21 19:26N 28°08' W 015°25'0 0.0
2017-Jan-21 18:26N 28°08' W 015°25'0 0.0
2017-Jan-21 17:29N 28°08' W 015°25'0 0.0
2017-Jan-21 16:29N 28°08' W 015°25'0 0.0
2017-Jan-21 15:26N 28°08' W 015°25'0 0.0
2017-Jan-21 14:26N 28°08' W 015°25'0 0.0
2017-Jan-21 13:32N 28°08' W 015°25'0 0.0
2017-Jan-21 12:32N 28°08' W 015°25'0 0.0
2017-Jan-21 11:32N 28°08' W 015°25'0 0.0
2017-Jan-21 10:32N 28°08' W 015°25'0 0.0
2017-Jan-21 09:32N 28°08' W 015°25'0 0.0
2017-Jan-21 08:32N 28°08' W 015°25'0 0.0
2017-Jan-21 07:32N 28°08' W 015°25'5 4.8
2017-Jan-21 06:33N 28°11' W 015°21'1110.9
2017-Jan-21 05:33N 28°21' W 015°17'1110.6
2017-Jan-21 04:33N 28°28' W 015°27'1110.9
2017-Jan-21 03:33N 28°34' W 015°37'1010.1
2017-Jan-21 02:33N 28°29' W 015°47'1110.9
2017-Jan-21 01:33N 28°22' W 015°57'1211.7
2017-Jan-21 00:33N 28°27' W 016°09'5 2.2
2017-Jan-20 22:20N 28°28' W 016°15'0 0.0
2017-Jan-20 21:32N 28°28' W 016°15'0 0.0
2017-Jan-20 20:32N 28°28' W 016°15'0 0.0
2017-Jan-20 19:32N 28°28' W 016°15'0 0.0
2017-Jan-20 18:32N 28°28' W 016°15'0 0.0
2017-Jan-20 17:20N 28°28' W 016°15'0 0.0
2017-Jan-20 16:26N 28°28' W 016°15'0 0.0
2017-Jan-20 15:23N 28°28' W 016°15'0 0.0
2017-Jan-20 14:26N 28°28' W 016°15'0 0.0
2017-Jan-20 13:29N 28°28' W 016°15'0 0.0
2017-Jan-20 12:29N 28°28' W 016°15'0 0.0
2017-Jan-20 11:29N 28°28' W 016°15'0 0.0
2017-Jan-20 10:26N 28°28' W 016°15'0 0.0
2017-Jan-20 09:32N 28°28' W 016°15'0 0.0
2017-Jan-20 08:32N 28°28' W 016°15'0 0.0
2017-Jan-20 07:32N 28°28' W 016°15'0 0.0
2017-Jan-20 06:32N 28°28' W 016°15'0 0.0
2017-Jan-20 05:32N 28°28' W 016°15'8 8.5
2017-Jan-20 04:33N 28°27' W 016°05'1514.5
2017-Jan-20 03:33N 28°32' W 015°50'1615.9
2017-Jan-20 02:34N 28°40' W 015°34'1716.7
2017-Jan-20 01:34N 28°41' W 015°15'1716.6
2017-Jan-20 00:33N 28°43' W 014°56'1615.7
2017-Jan-19 23:33N 28°45' W 014°38'1211.4
2017-Jan-19 22:28N 28°46' W 014°24'1111.5
2017-Jan-19 21:29N 28°47' W 014°11'1111.4
2017-Jan-19 20:28N 28°48' W 013°58'1111.6
2017-Jan-19 19:32N 28°49' W 013°46'1212.4
2017-Jan-19 18:33N 28°55' W 013°34'3 3.3
2017-Jan-19 17:31N 28°58' W 013°32'0 0.0
2017-Jan-19 14:31N 28°58' W 013°32'0 0.0
2017-Jan-19 12:31N 28°58' W 013°32'0 0.1
2017-Jan-19 08:33N 28°58' W 013°32'1414.0
2017-Jan-19 07:33N 29°01' W 013°17'1616.2
2017-Jan-19 06:33N 29°08' W 012°59'  
2017-Jan-15 03:28N 28°39' W 016°20'1415.2
2017-Jan-15 02:33N 28°35' W 016°05'1716.6
2017-Jan-15 01:33N 28°23' W 015°52'1616.2
2017-Jan-15 00:33N 28°17' W 015°35'1514.6
2017-Jan-14 23:33N 28°08' W 015°22'3 2.7
2017-Jan-14 22:30N 28°08' W 015°25'0 0.0
2017-Jan-14 21:21N 28°08' W 015°25'0 0.0
2017-Jan-14 20:33N 28°08' W 015°25'0 0.0
2017-Jan-14 19:24N 28°08' W 015°25'0 0.0
2017-Jan-14 18:28N 28°08' W 015°25'0 0.0
2017-Jan-14 17:27N 28°08' W 015°25'0 0.0
2017-Jan-14 16:28N 28°08' W 015°25'0 0.0
2017-Jan-14 15:30N 28°08' W 015°25'0 0.0
2017-Jan-14 14:30N 28°08' W 015°25'0 0.0
2017-Jan-14 13:31N 28°08' W 015°25'0 0.0
2017-Jan-14 12:33N 28°08' W 015°25'0 0.0
2017-Jan-14 11:33N 28°08' W 015°25'0 0.0
2017-Jan-14 10:33N 28°08' W 015°25'0 0.0
2017-Jan-14 09:33N 28°08' W 015°25'0 0.0
2017-Jan-14 08:34N 28°08' W 015°25'0 0.0
2017-Jan-14 07:33N 28°08' W 015°25'6 5.6
2017-Jan-14 06:34N 28°12' W 015°21'1110.7
2017-Jan-14 05:33N 28°22' W 015°17'1111.3
2017-Jan-14 04:33N 28°29' W 015°28'1111.2
2017-Jan-14 03:33N 28°34' W 015°39'32 7.6
2017-Jan-13 23:24N 28°28' W 016°15'0 0.0
2017-Jan-13 22:24N 28°28' W 016°15'0 0.0
2017-Jan-13 21:27N 28°28' W 016°15'0 0.0
2017-Jan-13 19:24N 28°28' W 016°15'0 0.0
2017-Jan-13 18:30N 28°28' W 016°15'0 0.0
2017-Jan-13 17:30N 28°28' W 016°15'0 0.0
2017-Jan-13 16:30N 28°28' W 016°15'0 0.0
2017-Jan-13 15:33N 28°28' W 016°15'0 0.0
2017-Jan-13 14:33N 28°28' W 016°15'0 0.0
2017-Jan-13 13:33N 28°28' W 016°15'0 0.0
2017-Jan-13 12:33N 28°28' W 016°15'0 0.0
2017-Jan-13 11:33N 28°28' W 016°15'0 0.0
2017-Jan-13 10:21N 28°28' W 016°15'0 0.0
2017-Jan-13 09:33N 28°28' W 016°15'8367.6
2017-Jan-13 08:19N 28°45' W 014°41'1 0.1
2017-Jan-12 22:11N 28°45' W 014°40'813.0
2017-Jan-12 21:33N 28°46' W 014°31'1313.0
2017-Jan-12 20:33N 28°47' W 014°16'1313.3
2017-Jan-12 19:33N 28°48' W 014°01'1313.1
2017-Jan-12 18:33N 28°47' W 013°46'1413.0
2017-Jan-12 17:29N 28°33' W 013°47'5 1.0
2017-Jan-12 12:20N 28°30' W 013°51'0 0.0
2017-Jan-12 11:32N 28°30' W 013°51'0 0.0
2017-Jan-12 10:20N 28°30' W 013°51'0 0.0
2017-Jan-12 09:26N 28°30' W 013°51'0 0.0
2017-Jan-12 08:20N 28°30' W 013°51'0 0.3
2017-Jan-12 07:33N 28°29' W 013°51'  

Dump ship's entire track history